Time;durP1;ratioP1;P1;durP2;ratioP2;P2;SDS_P1;SDS_P2;PMS_P1;PMS_P2;Temp;Humidity;BMP_temperature;BMP_pressure;BME280_temperature;BME280_humidity;BME280_pressure;Samples;Min_cycle;Max_cycle;Signal;HPM_P1;HPM_P2
2023/07/16 00:00:12;;;;;;;;;;;24.30;91.80;;;;;;2100317;28;19979;-78
2023/07/16 00:01:12;;;;;;;;;;;24.30;91.80;;;;;;2098229;28;19913;-78
2023/07/16 00:02:13;;;;;;;;;;;24.30;91.90;;;;;;2097970;28;20010;-77
2023/07/16 00:03:14;;;;;;;;;;;24.20;91.90;;;;;;2099268;28;19938;-78
2023/07/16 00:04:14;;;;;;;;;;;24.20;91.90;;;;;;2099339;28;19954;-78
2023/07/16 00:05:15;;;;;;;;;;;24.20;91.90;;;;;;2098911;28;20382;-79
2023/07/16 00:06:15;;;;;;;;;;;24.20;91.90;;;;;;2101939;28;19970;-76
2023/07/16 00:07:17;;;;;;;;;;;24.20;92.10;;;;;;2090662;28;19916;-77
2023/07/16 00:08:17;;;;;;;;;;;24.20;92.30;;;;;;2084828;28;20232;-77
2023/07/16 00:09:18;;;;;;;;;;;24.20;92.80;;;;;;2098009;28;19917;-77
2023/07/16 00:10:18;;;;;;;;;;;24.30;93.60;;;;;;2100572;28;19916;-76
2023/07/16 00:11:19;;;;;;;;;;;24.20;93.90;;;;;;2099683;28;19916;-77
2023/07/16 00:12:19;;;;;;;;;;;24.20;93.70;;;;;;2096103;28;20150;-77
2023/07/16 00:13:20;;;;;;;;;;;24.20;93.20;;;;;;2099523;28;19912;-77
2023/07/16 00:14:20;;;;;;;;;;;24.20;92.90;;;;;;2098256;28;19924;-77
2023/07/16 00:15:21;;;;;;;;;;;24.20;92.90;;;;;;2096687;28;19916;-76
2023/07/16 00:16:21;;;;;;;;;;;24.20;92.90;;;;;;2098031;28;20062;-79
2023/07/16 00:17:23;;;;;;;;;;;24.10;93.20;;;;;;2092583;28;20331;-79
2023/07/16 00:18:23;;;;;;;;;;;24.10;93.20;;;;;;2095677;28;20487;-77
2023/07/16 00:19:23;;;;;;;;;;;24.10;92.70;;;;;;2095274;28;20004;-76
2023/07/16 00:20:24;;;;;;;;;;;24.10;92.60;;;;;;2094331;28;20417;-77
2023/07/16 00:21:25;;;;;;;;;;;24.10;92.50;;;;;;2097776;28;20027;-79
2023/07/16 00:22:25;;;;;;;;;;;24.10;92.50;;;;;;2096607;28;19913;-76
2023/07/16 00:23:26;;;;;;;;;;;24.00;92.70;;;;;;2092856;28;20000;-76
2023/07/16 00:24:26;;;;;;;;;;;24.00;92.60;;;;;;2096629;28;20010;-77
2023/07/16 00:25:27;;;;;;;;;;;24.00;92.70;;;;;;2093564;28;19987;-76
2023/07/16 00:26:27;;;;;;;;;;;23.90;92.50;;;;;;2094534;28;19997;-76
2023/07/16 00:27:28;;;;;;;;;;;23.90;92.70;;;;;;2095350;28;20303;-76
2023/07/16 00:28:29;;;;;;;;;;;23.90;92.90;;;;;;2094435;28;20023;-76
2023/07/16 00:29:29;;;;;;;;;;;23.80;93.00;;;;;;2089491;28;19927;-76
2023/07/16 00:30:30;;;;;;;;;;;23.90;92.40;;;;;;2091414;28;19956;-76
2023/07/16 00:31:30;;;;;;;;;;;23.90;92.70;;;;;;2096579;28;19908;-77
2023/07/16 00:32:31;;;;;;;;;;;23.90;92.90;;;;;;2095599;28;20269;-77
2023/07/16 00:33:31;;;;;;;;;;;23.90;92.40;;;;;;2097178;28;19950;-76
2023/07/16 00:34:32;;;;;;;;;;;23.90;92.30;;;;;;2095284;28;20018;-79
2023/07/16 00:35:32;;;;;;;;;;;23.90;92.50;;;;;;2095273;28;20137;-79
2023/07/16 00:36:33;;;;;;;;;;;23.90;92.80;;;;;;2095256;28;19922;-77
2023/07/16 00:37:34;;;;;;;;;;;23.90;93.10;;;;;;2095529;28;20359;-75
2023/07/16 00:38:35;;;;;;;;;;;23.90;93.40;;;;;;2097561;28;19920;-78
2023/07/16 00:39:35;;;;;;;;;;;23.80;93.60;;;;;;2083113;28;20003;-78
2023/07/16 00:40:36;;;;;;;;;;;23.80;93.70;;;;;;2093577;28;20383;-77
2023/07/16 00:41:36;;;;;;;;;;;23.80;93.70;;;;;;2095928;28;19919;-78
2023/07/16 00:42:37;;;;;;;;;;;23.70;94.00;;;;;;2097761;28;19916;-77
2023/07/16 00:43:37;;;;;;;;;;;23.70;94.10;;;;;;2090673;28;19927;-76
2023/07/16 00:44:38;;;;;;;;;;;23.70;94.10;;;;;;2094546;28;20463;-78
2023/07/16 00:45:39;;;;;;;;;;;23.70;94.20;;;;;;2086357;28;20221;-78
2023/07/16 00:46:40;;;;;;;;;;;23.70;94.50;;;;;;2097646;28;20354;-79
2023/07/16 00:47:42;;;;;;;;;;;23.70;94.40;;;;;;2096755;28;19916;-78
2023/07/16 00:48:43;;;;;;;;;;;23.70;94.50;;;;;;2096215;28;19912;-75
2023/07/16 00:49:43;;;;;;;;;;;23.70;94.70;;;;;;2095838;28;20275;-75
2023/07/16 00:50:44;;;;;;;;;;;23.70;94.70;;;;;;2088021;28;20330;-77
2023/07/16 00:51:45;;;;;;;;;;;23.70;94.70;;;;;;2086273;28;19952;-75
2023/07/16 00:52:46;;;;;;;;;;;23.70;94.70;;;;;;2094615;28;19912;-76
2023/07/16 00:53:47;;;;;;;;;;;23.70;94.80;;;;;;2094709;28;19912;-78
2023/07/16 00:54:48;;;;;;;;;;;23.70;95.10;;;;;;2096391;28;20746;-75
2023/07/16 00:55:48;;;;;;;;;;;23.70;95.40;;;;;;2092369;28;19924;-78
2023/07/16 00:56:49;;;;;;;;;;;23.70;95.10;;;;;;2096171;28;20386;-76
2023/07/16 00:57:50;;;;;;;;;;;23.70;95.20;;;;;;2094040;28;19908;-76
2023/07/16 00:58:51;;;;;;;;;;;23.70;95.20;;;;;;2096328;28;20002;-76
2023/07/16 00:59:51;;;;;;;;;;;23.70;95.40;;;;;;2097898;28;20379;-76
2023/07/16 01:00:52;;;;;;;;;;;23.70;95.40;;;;;;2094136;28;19920;-76
2023/07/16 01:01:53;;;;;;;;;;;23.70;95.40;;;;;;2094290;28;19963;-77
2023/07/16 01:02:53;;;;;;;;;;;23.70;95.70;;;;;;2094555;28;19939;-75
2023/07/16 01:03:54;;;;;;;;;;;23.70;95.40;;;;;;2097188;28;19920;-77
2023/07/16 01:04:54;;;;;;;;;;;23.70;95.60;;;;;;2096478;28;20405;-76
2023/07/16 01:05:58;;;;;;;;;;;23.70;95.60;;;;;;2096486;28;20057;-76
2023/07/16 01:07:01;;;;;;;;;;;23.70;95.50;;;;;;2097728;28;19933;-77
2023/07/16 01:08:03;;;;;;;;;;;23.80;95.50;;;;;;2096919;28;19923;-77
2023/07/16 01:09:08;;;;;;;;;;;23.80;95.30;;;;;;2093926;28;20390;-75
2023/07/16 01:10:08;;;;;;;;;;;23.80;95.60;;;;;;2098874;28;20307;-75
2023/07/16 01:11:09;;;;;;;;;;;23.80;95.50;;;;;;2084834;28;19916;-76
2023/07/16 01:12:10;;;;;;;;;;;23.80;95.70;;;;;;2087589;28;19928;-77
2023/07/16 01:13:11;;;;;;;;;;;23.90;95.50;;;;;;2096555;28;19916;-78
2023/07/16 01:14:12;;;;;;;;;;;23.80;95.50;;;;;;2099107;28;20015;-76
2023/07/16 01:15:12;;;;;;;;;;;23.90;95.60;;;;;;2098020;28;20000;-77
2023/07/16 01:16:20;;;;;;;;;;;23.90;95.50;;;;;;2094137;28;19920;-76
2023/07/16 01:17:21;;;;;;;;;;;23.90;95.60;;;;;;2094096;28;20468;-77
2023/07/16 01:18:21;;;;;;;;;;;23.90;95.70;;;;;;2098171;28;20008;-77
2023/07/16 01:19:22;;;;;;;;;;;23.90;95.70;;;;;;2097427;28;20465;-78
2023/07/16 01:20:22;;;;;;;;;;;23.90;95.70;;;;;;2089719;28;20369;-77
2023/07/16 01:21:23;;;;;;;;;;;23.90;95.10;;;;;;2095948;28;19913;-77
2023/07/16 01:22:29;;;;;;;;;;;23.90;95.10;;;;;;2096134;28;19944;-77
2023/07/16 01:23:30;;;;;;;;;;;23.90;95.10;;;;;;2095986;28;20003;-77
2023/07/16 01:24:33;;;;;;;;;;;23.90;95.30;;;;;;2099388;28;19916;-76
2023/07/16 01:25:40;;;;;;;;;;;23.90;95.50;;;;;;2096891;28;19943;-76
2023/07/16 01:26:43;;;;;;;;;;;23.90;95.30;;;;;;2090425;28;20003;-78
2023/07/16 01:27:56;;;;;;;;;;;23.90;95.50;;;;;;2100562;28;19916;-78
2023/07/16 01:29:08;;;;;;;;;;;23.90;95.50;;;;;;2105214;28;19916;-77
2023/07/16 01:30:11;;;;;;;;;;;23.90;95.50;;;;;;2097691;28;19920;-77
2023/07/16 01:31:11;;;;;;;;;;;23.90;95.40;;;;;;2092621;28;19912;-77
2023/07/16 01:32:14;;;;;;;;;;;23.90;95.60;;;;;;2097485;28;19915;-77
2023/07/16 01:33:16;;;;;;;;;;;23.90;95.60;;;;;;2098025;28;20019;-74
2023/07/16 01:34:17;;;;;;;;;;;23.90;95.50;;;;;;2098491;28;19912;-77
2023/07/16 01:35:18;;;;;;;;;;;23.90;95.40;;;;;;2096438;28;20557;-78
2023/07/16 01:36:19;;;;;;;;;;;23.80;95.40;;;;;;2087570;28;19964;-78
2023/07/16 01:37:20;;;;;;;;;;;23.80;95.70;;;;;;2089959;28;19909;-76
2023/07/16 01:38:21;;;;;;;;;;;23.80;95.80;;;;;;2099956;28;20034;-77
2023/07/16 01:39:21;;;;;;;;;;;23.80;95.50;;;;;;2093744;28;19917;-77
2023/07/16 01:40:22;;;;;;;;;;;23.80;95.70;;;;;;2097441;28;19912;-78
2023/07/16 01:41:22;;;;;;;;;;;23.80;95.80;;;;;;2097428;28;19947;-77
2023/07/16 01:42:23;;;;;;;;;;;23.80;96.00;;;;;;2098038;28;19919;-77
2023/07/16 01:43:23;;;;;;;;;;;23.80;95.90;;;;;;2098809;28;19916;-75
2023/07/16 01:44:24;;;;;;;;;;;23.80;96.00;;;;;;2095928;28;19931;-77
2023/07/16 01:45:25;;;;;;;;;;;23.80;96.00;;;;;;2095455;28;20264;-77
2023/07/16 01:46:25;;;;;;;;;;;23.70;96.20;;;;;;2096540;28;19924;-77
2023/07/16 01:47:32;;;;;;;;;;;23.70;96.30;;;;;;2099979;28;19942;-77
2023/07/16 01:48:36;;;;;;;;;;;23.70;96.50;;;;;;2090412;28;19917;-76
2023/07/16 01:49:37;;;;;;;;;;;23.70;96.70;;;;;;2097175;28;20010;-76
2023/07/16 01:50:37;;;;;;;;;;;23.60;96.70;;;;;;2093137;28;19909;-76
2023/07/16 01:51:38;;;;;;;;;;;23.60;97.10;;;;;;2098115;28;19912;-75
2023/07/16 01:52:38;;;;;;;;;;;23.60;97.20;;;;;;2093688;28;19916;-77
2023/07/16 01:53:39;;;;;;;;;;;23.60;97.10;;;;;;2098640;28;19997;-75
2023/07/16 01:54:40;;;;;;;;;;;23.60;97.30;;;;;;2096169;28;19908;-76
2023/07/16 01:55:40;;;;;;;;;;;23.60;97.80;;;;;;2096343;28;20353;-76
2023/07/16 01:56:41;;;;;;;;;;;23.50;97.80;;;;;;2097136;28;19920;-77
2023/07/16 01:57:41;;;;;;;;;;;23.50;98.70;;;;;;2089144;28;19916;-77
2023/07/16 01:58:42;;;;;;;;;;;23.40;98.30;;;;;;2092286;28;19931;-77
2023/07/16 01:59:42;;;;;;;;;;;23.40;98.50;;;;;;2094775;28;19909;-77
2023/07/16 02:00:43;;;;;;;;;;;23.40;98.70;;;;;;2092144;28;20117;-77
2023/07/16 02:01:43;;;;;;;;;;;23.30;99.20;;;;;;2096894;28;19962;-75
2023/07/16 02:02:44;;;;;;;;;;;23.30;99.40;;;;;;2098541;28;19912;-76
2023/07/16 02:03:45;;;;;;;;;;;23.20;99.30;;;;;;2096404;28;19912;-76
2023/07/16 02:04:45;;;;;;;;;;;23.20;99.10;;;;;;2096562;28;20012;-79
2023/07/16 02:05:46;;;;;;;;;;;23.20;99.30;;;;;;2098495;28;19948;-78
2023/07/16 02:06:47;;;;;;;;;;;23.20;99.90;;;;;;2099148;28;19924;-78
2023/07/16 02:07:52;;;;;;;;;;;23.10;99.90;;;;;;2092528;28;20399;-78
2023/07/16 02:08:52;;;;;;;;;;;23.10;99.90;;;;;;2090230;28;19916;-78
2023/07/16 02:09:53;;;;;;;;;;;23.10;99.90;;;;;;2094250;28;20019;-79
2023/07/16 02:10:53;;;;;;;;;;;23.00;99.90;;;;;;2097008;28;19916;-77
2023/07/16 02:11:54;;;;;;;;;;;23.00;99.90;;;;;;2097696;28;19923;-77
2023/07/16 02:12:54;;;;;;;;;;;23.00;99.90;;;;;;2093840;28;19943;-78
2023/07/16 02:13:55;;;;;;;;;;;23.00;99.90;;;;;;2093662;28;19951;-78
2023/07/16 02:14:55;;;;;;;;;;;22.90;99.90;;;;;;2097921;28;20418;-76
2023/07/16 02:15:57;;;;;;;;;;;22.90;99.90;;;;;;2089580;28;21299;-77
2023/07/16 02:16:58;;;;;;;;;;;22.90;99.90;;;;;;2083629;28;20510;-76
2023/07/16 02:17:59;;;;;;;;;;;22.80;99.90;;;;;;2095786;28;19965;-77
2023/07/16 02:19:00;;;;;;;;;;;22.70;99.90;;;;;;2097545;28;20452;-76
2023/07/16 02:20:00;;;;;;;;;;;22.70;99.90;;;;;;2097588;28;19916;-76
2023/07/16 02:21:02;;;;;;;;;;;22.70;99.90;;;;;;2095520;28;19920;-75
2023/07/16 02:22:02;;;;;;;;;;;22.60;99.90;;;;;;2096191;28;19919;-78
2023/07/16 02:23:03;;;;;;;;;;;22.60;99.90;;;;;;2096274;28;19923;-73
2023/07/16 02:24:03;;;;;;;;;;;22.50;99.90;;;;;;2098737;28;19917;-76
2023/07/16 02:25:04;;;;;;;;;;;22.40;99.90;;;;;;2083996;28;20360;-75
2023/07/16 02:26:05;;;;;;;;;;;22.40;99.90;;;;;;2096565;28;20390;-76
2023/07/16 02:27:06;;;;;;;;;;;22.30;99.90;;;;;;2097152;28;20450;-75
2023/07/16 02:28:07;;;;;;;;;;;22.20;99.90;;;;;;2097158;28;20374;-77
2023/07/16 02:29:08;;;;;;;;;;;22.10;99.90;;;;;;2097599;28;19912;-76
2023/07/16 02:30:09;;;;;;;;;;;22.00;99.90;;;;;;2097698;28;19916;-76
2023/07/16 02:31:09;;;;;;;;;;;22.00;99.90;;;;;;2099204;28;19912;-75
2023/07/16 02:32:10;;;;;;;;;;;22.00;99.90;;;;;;2095296;28;19968;-77
2023/07/16 02:33:11;;;;;;;;;;;22.00;99.90;;;;;;2095418;28;19924;-74
2023/07/16 02:34:12;;;;;;;;;;;21.90;99.90;;;;;;2095549;28;20474;-76
2023/07/16 02:35:13;;;;;;;;;;;21.90;99.90;;;;;;2090872;28;19921;-75
2023/07/16 02:36:13;;;;;;;;;;;21.90;99.90;;;;;;2089275;28;20080;-75
2023/07/16 02:37:14;;;;;;;;;;;21.90;99.90;;;;;;2096075;28;19970;-76
2023/07/16 02:38:14;;;;;;;;;;;21.90;99.90;;;;;;2093694;28;19916;-75
2023/07/16 02:39:15;;;;;;;;;;;21.90;99.90;;;;;;2097403;28;20375;-75
2023/07/16 02:40:16;;;;;;;;;;;21.90;99.90;;;;;;2097814;28;20283;-76
2023/07/16 02:41:17;;;;;;;;;;;21.90;99.90;;;;;;2095898;28;19919;-76
2023/07/16 02:42:17;;;;;;;;;;;21.90;99.90;;;;;;2096298;28;20251;-77
2023/07/16 02:43:18;;;;;;;;;;;21.90;99.90;;;;;;2096087;28;20382;-78
2023/07/16 02:44:19;;;;;;;;;;;21.80;99.90;;;;;;2094613;28;20371;-76
2023/07/16 02:45:20;;;;;;;;;;;21.80;99.90;;;;;;2092842;28;20161;-75
2023/07/16 02:46:20;;;;;;;;;;;21.80;99.90;;;;;;2098459;28;19991;-78
2023/07/16 02:47:22;;;;;;;;;;;21.70;99.90;;;;;;2092127;28;19923;-77
2023/07/16 02:48:24;;;;;;;;;;;21.70;99.90;;;;;;2094061;28;19995;-76
2023/07/16 02:49:25;;;;;;;;;;;21.70;99.90;;;;;;2097421;28;19912;-78
2023/07/16 02:50:25;;;;;;;;;;;21.70;99.90;;;;;;2098166;28;20187;-79
2023/07/16 02:51:26;;;;;;;;;;;21.70;99.90;;;;;;2096501;28;20530;-75
2023/07/16 02:52:26;;;;;;;;;;;21.70;99.90;;;;;;2096320;28;19916;-76
2023/07/16 02:53:27;;;;;;;;;;;21.60;99.90;;;;;;2096741;28;19930;-76
2023/07/16 02:54:28;;;;;;;;;;;21.60;99.90;;;;;;2095475;28;19924;-76
2023/07/16 02:55:28;;;;;;;;;;;21.60;99.90;;;;;;2093060;28;19971;-77
2023/07/16 02:56:29;;;;;;;;;;;21.50;99.90;;;;;;2098786;28;20081;-77
2023/07/16 02:57:29;;;;;;;;;;;21.50;99.90;;;;;;2097268;28;19929;-76
2023/07/16 02:58:30;;;;;;;;;;;21.50;99.90;;;;;;2097641;28;20374;-76
2023/07/16 02:59:31;;;;;;;;;;;21.40;99.90;;;;;;2096520;28;20149;-76
2023/07/16 03:00:31;;;;;;;;;;;21.40;99.90;;;;;;2097311;28;19939;-76
2023/07/16 03:01:32;;;;;;;;;;;21.40;99.90;;;;;;2086875;28;20330;-76
2023/07/16 03:02:33;;;;;;;;;;;21.40;99.90;;;;;;2095046;28;20028;-77
2023/07/16 03:03:33;;;;;;;;;;;21.40;99.90;;;;;;2086949;28;19992;-76
2023/07/16 03:04:34;;;;;;;;;;;21.30;99.90;;;;;;2097526;28;20282;-76
2023/07/16 03:05:34;;;;;;;;;;;21.30;99.90;;;;;;2094610;28;19912;-76
2023/07/16 03:06:35;;;;;;;;;;;21.30;99.90;;;;;;2096499;28;20078;-76
2023/07/16 03:07:35;;;;;;;;;;;21.30;99.90;;;;;;2096715;28;20302;-75
2023/07/16 03:08:36;;;;;;;;;;;21.40;99.90;;;;;;2093914;28;20330;-76
2023/07/16 03:09:36;;;;;;;;;;;21.40;99.90;;;;;;2097273;28;19923;-76
2023/07/16 03:10:37;;;;;;;;;;;21.40;99.90;;;;;;2095068;28;20099;-76
2023/07/16 03:11:38;;;;;;;;;;;21.40;99.90;;;;;;2095074;28;19915;-76
2023/07/16 03:12:38;;;;;;;;;;;21.40;99.90;;;;;;2095250;28;19923;-76
2023/07/16 03:13:39;;;;;;;;;;;21.40;99.90;;;;;;2097780;28;19928;-78
2023/07/16 03:14:41;;;;;;;;;;;21.40;99.90;;;;;;2089865;28;19913;-78
2023/07/16 03:15:41;;;;;;;;;;;21.40;99.90;;;;;;2096048;28;19916;-78
2023/07/16 03:16:42;;;;;;;;;;;21.40;99.90;;;;;;2093488;28;20290;-78
2023/07/16 03:17:44;;;;;;;;;;;21.40;99.90;;;;;;2097317;28;19916;-78
2023/07/16 03:18:45;;;;;;;;;;;21.40;99.90;;;;;;2097597;28;19991;-78
2023/07/16 03:19:45;;;;;;;;;;;21.40;99.90;;;;;;2095229;28;19920;-78
2023/07/16 03:20:46;;;;;;;;;;;21.40;99.90;;;;;;2095198;28;19912;-78
2023/07/16 03:21:48;;;;;;;;;;;21.30;99.90;;;;;;2094964;28;19923;-78
2023/07/16 03:22:49;;;;;;;;;;;21.30;99.90;;;;;;2089161;28;20015;-78
2023/07/16 03:23:50;;;;;;;;;;;21.30;99.90;;;;;;2085283;28;19924;-78
2023/07/16 03:24:51;;;;;;;;;;;21.30;99.90;;;;;;2075435;28;19924;-77
2023/07/16 03:25:51;;;;;;;;;;;21.30;99.90;;;;;;2092896;28;20042;-77
2023/07/16 03:26:52;;;;;;;;;;;21.30;99.90;;;;;;2095831;28;19924;-78
2023/07/16 03:27:54;;;;;;;;;;;21.30;99.90;;;;;;2092880;28;19916;-78
2023/07/16 03:28:55;;;;;;;;;;;21.30;99.90;;;;;;2094782;28;20428;-78
2023/07/16 03:29:57;;;;;;;;;;;21.30;99.90;;;;;;2094830;28;19919;-75
2023/07/16 03:30:57;;;;;;;;;;;21.30;99.90;;;;;;2095491;28;19924;-75
2023/07/16 03:31:58;;;;;;;;;;;21.30;99.90;;;;;;2096531;28;19963;-78
2023/07/16 03:32:58;;;;;;;;;;;21.20;99.90;;;;;;2098796;28;19924;-75
2023/07/16 03:34:00;;;;;;;;;;;21.30;99.90;;;;;;2096224;28;20041;-75
2023/07/16 03:35:04;;;;;;;;;;;21.30;99.90;;;;;;2096318;28;20406;-75
2023/07/16 03:36:04;;;;;;;;;;;21.20;99.90;;;;;;2096440;28;19912;-79
2023/07/16 03:37:05;;;;;;;;;;;21.20;99.90;;;;;;2095514;28;19915;-78
2023/07/16 03:38:06;;;;;;;;;;;21.20;99.90;;;;;;2097635;28;19997;-79
2023/07/16 03:39:07;;;;;;;;;;;21.30;99.90;;;;;;2095124;28;19920;-77
2023/07/16 03:40:15;;;;;;;;;;;21.20;99.90;;;;;;2094907;28;20425;-77
2023/07/16 03:41:17;;;;;;;;;;;21.30;99.90;;;;;;2087793;28;20515;-77
2023/07/16 03:42:19;;;;;;;;;;;21.30;99.90;;;;;;2086936;28;19916;-79
2023/07/16 03:43:20;;;;;;;;;;;21.30;99.90;;;;;;2088522;28;20449;-77
2023/07/16 03:44:22;;;;;;;;;;;21.20;99.90;;;;;;2090424;28;19917;-78
2023/07/16 03:45:23;;;;;;;;;;;21.20;99.90;;;;;;2092735;28;19948;-79
2023/07/16 03:46:25;;;;;;;;;;;21.20;99.90;;;;;;2092887;28;19909;-79
2023/07/16 03:47:26;;;;;;;;;;;21.20;99.90;;;;;;2089177;28;19937;-77
2023/07/16 03:48:26;;;;;;;;;;;21.20;99.90;;;;;;2091960;28;19949;-78
2023/07/16 03:49:27;;;;;;;;;;;21.20;99.90;;;;;;2086085;28;20461;-79
2023/07/16 03:50:27;;;;;;;;;;;21.20;99.90;;;;;;2094748;28;19924;-79
2023/07/16 03:51:29;;;;;;;;;;;21.10;99.90;;;;;;2097764;28;19912;-78
2023/07/16 03:52:30;;;;;;;;;;;21.10;99.90;;;;;;2096350;28;19919;-77
2023/07/16 03:53:30;;;;;;;;;;;21.10;99.90;;;;;;2092967;28;20334;-77
2023/07/16 03:54:31;;;;;;;;;;;21.10;99.90;;;;;;2096088;28;19946;-77
2023/07/16 03:55:32;;;;;;;;;;;21.00;99.90;;;;;;2098243;28;19962;-77
2023/07/16 03:56:32;;;;;;;;;;;21.00;99.90;;;;;;2095654;28;20696;-78
2023/07/16 03:57:33;;;;;;;;;;;21.00;99.90;;;;;;2093777;28;19920;-78
2023/07/16 03:58:33;;;;;;;;;;;21.00;99.90;;;;;;2093617;28;19960;-78
2023/07/16 03:59:35;;;;;;;;;;;21.00;99.90;;;;;;2093547;28;20386;-78
2023/07/16 04:00:35;;;;;;;;;;;20.90;99.90;;;;;;2088506;28;20015;-77
2023/07/16 04:01:36;;;;;;;;;;;20.90;99.90;;;;;;2096190;28;19924;-78
2023/07/16 04:02:36;;;;;;;;;;;20.90;99.90;;;;;;2096858;28;20328;-79
2023/07/16 04:03:37;;;;;;;;;;;20.90;99.90;;;;;;2096109;28;19983;-77
2023/07/16 04:04:39;;;;;;;;;;;20.90;99.90;;;;;;2097526;28;19967;-77
2023/07/16 04:05:39;;;;;;;;;;;20.90;99.90;;;;;;2094747;28;19916;-76
2023/07/16 04:06:40;;;;;;;;;;;20.90;99.90;;;;;;2086510;28;19920;-78
2023/07/16 04:07:41;;;;;;;;;;;20.90;99.90;;;;;;2094552;28;20239;-77
2023/07/16 04:08:41;;;;;;;;;;;20.90;99.90;;;;;;2095465;28;19927;-78
2023/07/16 04:09:42;;;;;;;;;;;20.90;99.90;;;;;;2096650;28;20222;-78
2023/07/16 04:10:42;;;;;;;;;;;20.90;99.90;;;;;;2096673;28;20348;-78
2023/07/16 04:11:43;;;;;;;;;;;20.90;99.90;;;;;;2096215;28;19942;-77
2023/07/16 04:12:43;;;;;;;;;;;20.90;99.90;;;;;;2098054;28;19916;-76
2023/07/16 04:13:44;;;;;;;;;;;21.00;99.90;;;;;;2095240;28;19920;-77
2023/07/16 04:14:44;;;;;;;;;;;21.00;99.90;;;;;;2095069;28;19912;-77
2023/07/16 04:15:45;;;;;;;;;;;21.00;99.90;;;;;;2094565;28;20013;-77
2023/07/16 04:16:46;;;;;;;;;;;21.00;99.90;;;;;;2097922;28;19912;-77
2023/07/16 04:17:46;;;;;;;;;;;20.90;99.90;;;;;;2091976;28;19923;-78
2023/07/16 04:18:46;;;;;;;;;;;21.00;99.90;;;;;;2093387;28;20015;-77
2023/07/16 04:19:47;;;;;;;;;;;21.00;99.90;;;;;;2096273;28;19959;-77
2023/07/16 04:20:47;;;;;;;;;;;21.00;99.90;;;;;;2094599;28;20367;-77
2023/07/16 04:21:48;;;;;;;;;;;21.00;99.90;;;;;;2092484;28;19924;-77
2023/07/16 04:22:48;;;;;;;;;;;21.00;99.90;;;;;;2095226;28;19913;-77
2023/07/16 04:23:49;;;;;;;;;;;21.00;99.90;;;;;;2095126;28;19912;-78
2023/07/16 04:24:49;;;;;;;;;;;21.00;99.90;;;;;;2097970;28;19920;-78
2023/07/16 04:25:53;;;;;;;;;;;21.10;99.90;;;;;;2096001;28;20039;-78
2023/07/16 04:26:54;;;;;;;;;;;21.10;99.90;;;;;;2096022;28;20026;-78
2023/07/16 04:27:55;;;;;;;;;;;21.10;99.90;;;;;;2096186;28;19912;-77
2023/07/16 04:28:56;;;;;;;;;;;21.10;99.90;;;;;;2096184;28;19932;-79
2023/07/16 04:29:56;;;;;;;;;;;21.10;99.90;;;;;;2095727;28;19920;-78
2023/07/16 04:30:56;;;;;;;;;;;21.10;99.90;;;;;;2097643;28;19912;-78
2023/07/16 04:31:57;;;;;;;;;;;21.10;99.90;;;;;;2095514;28;20398;-78
2023/07/16 04:32:57;;;;;;;;;;;21.10;99.90;;;;;;2095188;28;19928;-78
2023/07/16 04:33:58;;;;;;;;;;;21.10;99.90;;;;;;2096282;28;20387;-77
2023/07/16 04:34:58;;;;;;;;;;;21.10;99.90;;;;;;2098546;28;19920;-78
2023/07/16 04:35:59;;;;;;;;;;;21.10;99.90;;;;;;2096611;28;19931;-77
2023/07/16 04:36:59;;;;;;;;;;;21.20;99.90;;;;;;2096640;28;19919;-77
2023/07/16 04:38:00;;;;;;;;;;;21.20;99.90;;;;;;2096220;28;20379;-77
2023/07/16 04:39:01;;;;;;;;;;;21.20;99.90;;;;;;2097627;28;20086;-77
2023/07/16 04:40:01;;;;;;;;;;;21.10;99.90;;;;;;2095761;28;19912;-80
2023/07/16 04:41:02;;;;;;;;;;;21.10;99.90;;;;;;2094065;28;19919;-79
2023/07/16 04:42:03;;;;;;;;;;;21.10;99.90;;;;;;2094681;28;19920;-78
2023/07/16 04:43:03;;;;;;;;;;;21.10;99.90;;;;;;2095906;28;20596;-79
2023/07/16 04:44:04;;;;;;;;;;;21.20;99.90;;;;;;2095227;28;20174;-79
2023/07/16 04:45:05;;;;;;;;;;;21.10;99.90;;;;;;2098058;28;19913;-79
2023/07/16 04:46:05;;;;;;;;;;;21.20;99.90;;;;;;2096571;28;20284;-80
2023/07/16 04:47:06;;;;;;;;;;;21.10;99.90;;;;;;2096532;28;20068;-80
2023/07/16 04:48:07;;;;;;;;;;;21.20;99.90;;;;;;2096786;28;19912;-79
2023/07/16 04:49:07;;;;;;;;;;;21.10;99.90;;;;;;2093596;28;19912;-77
2023/07/16 04:50:08;;;;;;;;;;;21.20;99.90;;;;;;2091472;28;19920;-79
2023/07/16 04:51:08;;;;;;;;;;;21.20;99.90;;;;;;2093917;28;19960;-78
2023/07/16 04:52:09;;;;;;;;;;;21.20;99.90;;;;;;2095346;28;19923;-79
2023/07/16 04:53:09;;;;;;;;;;;21.30;99.90;;;;;;2095657;28;20421;-77
2023/07/16 04:54:10;;;;;;;;;;;21.30;99.90;;;;;;2098238;28;19920;-79
2023/07/16 04:55:12;;;;;;;;;;;21.40;99.90;;;;;;2092453;28;20378;-78
2023/07/16 04:56:12;;;;;;;;;;;21.40;99.90;;;;;;2096490;28;20034;-79
2023/07/16 04:57:13;;;;;;;;;;;21.50;99.90;;;;;;2093608;28;20736;-78
2023/07/16 04:58:14;;;;;;;;;;;21.50;99.90;;;;;;2092577;28;19916;-78
2023/07/16 04:59:14;;;;;;;;;;;21.60;99.90;;;;;;2094872;28;20426;-78
2023/07/16 05:00:15;;;;;;;;;;;21.60;99.90;;;;;;2094287;28;19927;-78
2023/07/16 05:01:15;;;;;;;;;;;21.70;99.90;;;;;;2091910;28;19917;-78
2023/07/16 05:02:17;;;;;;;;;;;21.70;99.90;;;;;;2093787;28;20003;-78
2023/07/16 05:03:17;;;;;;;;;;;21.70;99.90;;;;;;2096447;28;20021;-79
2023/07/16 05:04:18;;;;;;;;;;;21.70;99.90;;;;;;2096384;28;20402;-78
2023/07/16 05:05:18;;;;;;;;;;;21.70;99.90;;;;;;2096789;28;19959;-78
2023/07/16 05:06:18;;;;;;;;;;;21.70;99.90;;;;;;2097542;28;19916;-78
2023/07/16 05:07:19;;;;;;;;;;;21.70;99.90;;;;;;2095140;28;20073;-77
2023/07/16 05:08:20;;;;;;;;;;;21.70;99.90;;;;;;2095067;28;20147;-77
2023/07/16 05:09:20;;;;;;;;;;;21.70;99.90;;;;;;2095584;28;20098;-77
2023/07/16 05:10:21;;;;;;;;;;;21.70;99.90;;;;;;2094052;28;19977;-79
2023/07/16 05:11:21;;;;;;;;;;;21.70;99.90;;;;;;2092242;28;20341;-76
2023/07/16 05:12:22;;;;;;;;;;;21.70;99.90;;;;;;2096428;28;19913;-77
2023/07/16 05:13:22;;;;;;;;;;;21.60;99.90;;;;;;2097939;28;19912;-77
2023/07/16 05:14:25;;;;;;;;;;;21.60;99.90;;;;;;2095409;28;19923;-78
2023/07/16 05:15:26;;;;;;;;;;;21.60;99.90;;;;;;2095128;28;19947;-77
2023/07/16 05:16:26;;;;;;;;;;;21.50;99.90;;;;;;2095495;28;20519;-76
2023/07/16 05:17:27;;;;;;;;;;;21.50;99.90;;;;;;2095627;28;20393;-78
2023/07/16 05:18:27;;;;;;;;;;;21.50;99.90;;;;;;2094867;28;19924;-71
2023/07/16 05:19:28;;;;;;;;;;;21.50;99.90;;;;;;2097693;28;20327;-68
2023/07/16 05:20:28;;;;;;;;;;;21.50;99.90;;;;;;2094883;28;19920;-66
2023/07/16 05:21:29;;;;;;;;;;;21.40;99.90;;;;;;2096569;28;19916;-64
2023/07/16 05:22:29;;;;;;;;;;;21.40;99.90;;;;;;2096472;28;19908;-65
2023/07/16 05:23:30;;;;;;;;;;;21.40;99.90;;;;;;2097626;28;20273;-64
2023/07/16 05:24:31;;;;;;;;;;;21.40;99.90;;;;;;2094803;28;19966;-64
2023/07/16 05:25:31;;;;;;;;;;;21.40;99.90;;;;;;2095343;28;19927;-64
2023/07/16 05:26:33;;;;;;;;;;;21.40;99.90;;;;;;2095154;28;19920;-64
2023/07/16 05:27:33;;;;;;;;;;;21.50;99.90;;;;;;2095008;28;20237;-64
2023/07/16 05:28:34;;;;;;;;;;;21.40;99.90;;;;;;2097726;28;19916;-64
2023/07/16 05:29:34;;;;;;;;;;;21.50;99.90;;;;;;2092086;28;20375;-64
2023/07/16 05:30:34;;;;;;;;;;;21.50;99.90;;;;;;2096359;28;20010;-64
2023/07/16 05:31:35;;;;;;;;;;;21.50;99.90;;;;;;2098151;28;19963;-64
2023/07/16 05:32:36;;;;;;;;;;;21.50;99.90;;;;;;2092018;28;20100;-64
2023/07/16 05:33:36;;;;;;;;;;;21.60;99.90;;;;;;2095274;28;19912;-64
2023/07/16 05:34:37;;;;;;;;;;;21.60;99.90;;;;;;2095468;28;19912;-64
2023/07/16 05:35:38;;;;;;;;;;;21.70;99.90;;;;;;2095027;28;19912;-65
2023/07/16 05:36:41;;;;;;;;;;;21.70;99.90;;;;;;2095036;28;20387;-64
2023/07/16 05:37:41;;;;;;;;;;;21.70;99.90;;;;;;2091029;28;19952;-64
2023/07/16 05:38:42;;;;;;;;;;;21.60;99.90;;;;;;2096970;28;20087;-65
2023/07/16 05:39:42;;;;;;;;;;;21.70;99.90;;;;;;2094318;28;20536;-65
2023/07/16 05:40:43;;;;;;;;;;;21.70;99.90;;;;;;2094921;28;20033;-64
2023/07/16 05:41:43;;;;;;;;;;;21.70;99.90;;;;;;2094891;28;20392;-64
2023/07/16 05:42:44;;;;;;;;;;;21.70;99.90;;;;;;2098008;28;19917;-64
2023/07/16 05:43:44;;;;;;;;;;;21.70;99.90;;;;;;2091685;28;19916;-64
2023/07/16 05:44:46;;;;;;;;;;;21.80;99.90;;;;;;2096538;28;20381;-64
2023/07/16 05:45:48;;;;;;;;;;;21.80;99.90;;;;;;2096214;28;19940;-64
2023/07/16 05:46:48;;;;;;;;;;;21.80;99.90;;;;;;2096194;28;19924;-64
2023/07/16 05:47:49;;;;;;;;;;;21.80;99.90;;;;;;2097878;28;19969;-65
2023/07/16 05:48:49;;;;;;;;;;;21.80;99.90;;;;;;2095672;28;19916;-64
2023/07/16 05:49:50;;;;;;;;;;;21.80;99.90;;;;;;2095132;28;20444;-64
2023/07/16 05:50:50;;;;;;;;;;;21.90;99.90;;;;;;2094922;28;19916;-64
2023/07/16 05:51:51;;;;;;;;;;;21.90;99.90;;;;;;2097059;28;20516;-64
2023/07/16 05:52:52;;;;;;;;;;;21.90;99.90;;;;;;2097684;28;19982;-64
2023/07/16 05:53:52;;;;;;;;;;;21.90;99.90;;;;;;2092388;28;19921;-64